Time;durP1;ratioP1;P1;durP2;ratioP2;P2;SDS_P1;SDS_P2;PMS_P1;PMS_P2;Temp;Humidity;BMP_temperature;BMP_pressure;BME280_temperature;BME280_humidity;BME280_pressure;Samples;Min_cycle;Max_cycle;Signal;HPM_P1;HPM_P2
2022/03/09 00:02:03;;;;;;;4.82;3.05;;;4.90;62.20;;;;;;6126210;22;92335;-68
2022/03/09 00:04:31;;;;;;;5.68;3.60;;;4.90;61.90;;;;;;6125981;22;92411;-69
2022/03/09 00:06:58;;;;;;;8.55;3.50;;;4.80;62.10;;;;;;6122625;23;95738;-69
2022/03/09 00:09:25;;;;;;;5.18;3.25;;;4.80;62.20;;;;;;6125701;22;95304;-74
2022/03/09 00:11:52;;;;;;;7.55;3.40;;;4.80;62.40;;;;;;6126367;22;92311;-74
2022/03/09 00:14:19;;;;;;;4.63;3.78;;;4.80;62.60;;;;;;6126459;22;92291;-69
2022/03/09 00:16:46;;;;;;;4.55;3.63;;;4.80;62.70;;;;;;6126568;22;93154;-74
2022/03/09 00:19:13;;;;;;;4.22;3.55;;;4.70;62.40;;;;;;6125633;22;92899;-74
2022/03/09 00:21:40;;;;;;;3.72;3.00;;;4.70;62.40;;;;;;6126567;22;92413;-74
2022/03/09 00:24:07;;;;;;;4.85;3.50;;;4.70;62.50;;;;;;6124409;23;91771;-68
2022/03/09 00:26:34;;;;;;;5.10;3.45;;;4.70;62.50;;;;;;6125710;22;93471;-69
2022/03/09 00:29:01;;;;;;;7.15;3.60;;;4.70;62.50;;;;;;6123662;23;93909;-68
2022/03/09 00:31:30;;;;;;;7.90;3.25;;;4.70;62.80;;;;;;6124819;23;95211;-73
2022/03/09 00:33:57;;;;;;;5.47;3.65;;;4.60;62.90;;;;;;6123983;23;92969;-69
2022/03/09 00:36:23;;;;;;;4.15;2.90;;;4.60;62.90;;;;;;6125335;22;93253;-68
2022/03/09 00:38:51;;;;;;;5.45;3.00;;;4.50;63.10;;;;;;6099305;23;93919;-69
2022/03/09 00:41:18;;;;;;;5.55;3.60;;;4.50;63.80;;;;;;6125890;22;92396;-73
2022/03/09 00:43:45;;;;;;;5.72;3.60;;;4.50;64.20;;;;;;6100603;23;92947;-73
2022/03/09 00:46:12;;;;;;;6.47;3.38;;;4.50;63.90;;;;;;6122945;23;112531;-68
2022/03/09 00:48:39;;;;;;;5.18;3.63;;;4.50;64.00;;;;;;6124550;23;92992;-68
2022/03/09 00:51:08;;;;;;;5.55;3.47;;;4.50;63.80;;;;;;6125839;23;92427;-73
2022/03/09 00:53:37;;;;;;;6.20;3.97;;;4.50;64.00;;;;;;6124991;23;92549;-73
2022/03/09 00:56:05;;;;;;;5.55;3.50;;;4.50;64.10;;;;;;6097822;23;99068;-69
2022/03/09 00:58:32;;;;;;;5.25;4.25;;;4.50;64.00;;;;;;6125363;23;95305;-68
2022/03/09 01:01:00;;;;;;;4.28;3.70;;;4.50;63.50;;;;;;6123686;23;92418;-68
2022/03/09 01:03:27;;;;;;;4.95;4.28;;;4.50;63.60;;;;;;6124326;23;92432;-68
2022/03/09 01:05:55;;;;;;;5.70;4.03;;;4.50;64.00;;;;;;6125158;22;104059;-74
2022/03/09 01:08:22;;;;;;;5.45;4.10;;;4.50;63.90;;;;;;6125787;22;93031;-69
2022/03/09 01:10:49;;;;;;;4.88;3.97;;;4.50;63.90;;;;;;6126430;22;92430;-74
2022/03/09 01:13:16;;;;;;;6.53;3.60;;;4.50;63.90;;;;;;6125784;22;91686;-69
2022/03/09 01:15:43;;;;;;;5.43;4.10;;;4.50;64.50;;;;;;6126031;22;93047;-74
2022/03/09 01:18:10;;;;;;;4.60;3.70;;;4.50;64.10;;;;;;6125577;22;92923;-69
2022/03/09 01:20:37;;;;;;;6.93;4.78;;;4.50;63.70;;;;;;6123178;23;95111;-74
2022/03/09 01:23:04;;;;;;;5.95;4.07;;;4.50;63.70;;;;;;6124079;23;92500;-74
2022/03/09 01:25:31;;;;;;;6.13;4.10;;;4.40;63.80;;;;;;6124556;23;93322;-73
2022/03/09 01:27:58;;;;;;;6.97;3.88;;;4.40;64.40;;;;;;6099835;23;95402;-73
2022/03/09 01:30:25;;;;;;;4.43;3.63;;;4.40;64.50;;;;;;6126219;22;92755;-68
2022/03/09 01:32:52;;;;;;;5.50;3.40;;;4.40;64.40;;;;;;6124005;23;92522;-73
2022/03/09 01:35:19;;;;;;;5.03;3.53;;;4.40;64.50;;;;;;6125442;22;93204;-68
2022/03/09 01:37:49;;;;;;;6.80;4.32;;;4.40;64.40;;;;;;6126270;23;93046;-73
2022/03/09 01:40:17;;;;;;;5.10;3.80;;;4.30;64.70;;;;;;6125665;22;92430;-69
2022/03/09 01:42:44;;;;;;;4.80;3.95;;;4.30;64.60;;;;;;6124888;23;101688;-73
2022/03/09 01:45:13;;;;;;;7.45;4.80;;;4.30;64.90;;;;;;6123949;22;98000;-69
2022/03/09 01:47:40;;;;;;;6.90;5.03;;;4.30;64.80;;;;;;6124907;22;95903;-73
2022/03/09 01:50:11;;;;;;;9.75;4.55;;;4.30;65.00;;;;;;6124310;23;92523;-73
2022/03/09 01:52:40;;;;;;;7.75;5.00;;;4.30;65.00;;;;;;6124641;23;92618;-74
2022/03/09 01:55:08;;;;;;;6.40;4.35;;;4.20;64.90;;;;;;6124672;22;93154;-68
2022/03/09 01:57:35;;;;;;;6.28;4.43;;;4.20;65.00;;;;;;6098836;23;94252;-69
2022/03/09 02:00:04;;;;;;;5.30;4.40;;;4.20;65.20;;;;;;6124442;23;92444;-73
2022/03/09 02:02:32;;;;;;;6.50;4.90;;;4.20;65.20;;;;;;6126178;22;91715;-69
2022/03/09 02:04:59;;;;;;;7.55;5.28;;;4.10;65.30;;;;;;6098815;23;95865;-73
2022/03/09 02:10:12;;;;;;;7.15;4.45;;;4.00;65.50;;;;;;6123133;23;95225;-73
2022/03/09 02:12:39;;;;;;;6.55;4.20;;;4.00;65.60;;;;;;6099634;23;92342;-68
2022/03/09 02:15:07;;;;;;;6.68;5.05;;;3.90;66.00;;;;;;6098458;23;94160;-69
2022/03/09 02:17:34;;;;;;;7.75;4.85;;;3.90;66.10;;;;;;6125352;22;92781;-68
2022/03/09 02:20:02;;;;;;;7.88;4.75;;;3.90;66.20;;;;;;6125590;22;93344;-69
2022/03/09 02:22:33;;;;;;;9.18;4.95;;;3.90;66.20;;;;;;6125186;22;92277;-69
2022/03/09 02:25:06;;;;;;;7.50;5.32;;;3.80;67.00;;;;;;6123873;23;93176;-73
2022/03/09 02:27:33;;;;;;;9.98;5.22;;;3.80;66.60;;;;;;6126179;23;93036;-73
2022/03/09 02:30:01;;;;;;;8.50;4.85;;;3.80;66.90;;;;;;6125181;22;92429;-69
2022/03/09 02:32:28;;;;;;;7.68;5.00;;;3.70;67.10;;;;;;6123780;23;93440;-69
2022/03/09 02:34:55;;;;;;;7.78;5.55;;;3.70;67.20;;;;;;6147110;22;95615;-69
2022/03/09 02:37:23;;;;;;;6.82;4.95;;;3.70;67.40;;;;;;6098866;23;95241;-69
2022/03/09 02:39:50;;;;;;;8.52;5.22;;;3.70;67.60;;;;;;6125991;22;92392;-74
2022/03/09 02:42:17;;;;;;;6.85;4.93;;;3.60;67.60;;;;;;6125612;22;92646;-73
2022/03/09 02:44:44;;;;;;;7.00;4.88;;;3.60;68.00;;;;;;6125752;22;93118;-68
2022/03/09 02:47:11;;;;;;;7.65;5.15;;;3.60;67.90;;;;;;6123499;23;93011;-68
2022/03/09 02:49:38;;;;;;;6.60;4.93;;;3.50;67.90;;;;;;6123866;23;92409;-73
2022/03/09 02:52:05;;;;;;;7.60;5.15;;;3.50;67.90;;;;;;6124275;23;93402;-69
2022/03/09 02:54:32;;;;;;;6.03;4.80;;;3.50;68.40;;;;;;6124660;22;93062;-69
2022/03/09 02:56:59;;;;;;;8.25;5.25;;;3.40;68.50;;;;;;6123465;23;92661;-68
2022/03/09 02:59:27;;;;;;;4.68;4.18;;;3.40;68.70;;;;;;6121967;23;95198;-73
2022/03/09 03:01:54;;;;;;;8.00;5.07;;;3.40;68.80;;;;;;6123686;23;92485;-69
2022/03/09 03:04:21;;;;;;;6.20;4.55;;;3.40;68.80;;;;;;6124716;22;92984;-73
2022/03/09 03:06:48;;;;;;;6.70;4.72;;;3.30;69.10;;;;;;6123329;23;92472;-69
2022/03/09 03:09:15;;;;;;;8.73;5.43;;;3.30;69.20;;;;;;6123173;23;92777;-69
2022/03/09 03:11:45;;;;;;;7.63;5.18;;;3.30;69.70;;;;;;6125592;22;92515;-73
2022/03/09 03:14:12;;;;;;;6.93;5.57;;;3.40;69.30;;;;;;6123765;23;93182;-68
2022/03/09 03:16:39;;;;;;;6.82;5.07;;;3.40;68.90;;;;;;6125526;22;92906;-73
2022/03/09 03:19:06;;;;;;;9.05;5.65;;;3.40;68.50;;;;;;6125975;22;92314;-73
2022/03/09 03:21:35;;;;;;;8.80;5.47;;;3.40;68.60;;;;;;6123738;22;92411;-68
2022/03/09 03:24:02;;;;;;;7.68;5.72;;;3.40;68.60;;;;;;6123168;22;95484;-68
2022/03/09 03:26:29;;;;;;;8.43;5.50;;;3.30;68.80;;;;;;6124693;22;95397;-73
2022/03/09 03:28:58;;;;;;;9.65;6.05;;;3.30;68.70;;;;;;6125736;22;92409;-73
2022/03/09 03:31:29;;;;;;;8.40;5.85;;;3.30;69.40;;;;;;6125521;23;92396;-73
2022/03/09 03:33:57;;;;;;;10.05;6.38;;;3.20;69.00;;;;;;6123570;23;95906;-68
2022/03/09 03:36:24;;;;;;;9.07;5.75;;;3.20;69.00;;;;;;6123698;22;108846;-73
2022/03/09 03:38:52;;;;;;;11.18;6.43;;;3.20;69.20;;;;;;6123308;23;92663;-69
2022/03/09 03:41:19;;;;;;;9.23;6.13;;;3.20;69.10;;;;;;6122798;23;96731;-68
2022/03/09 03:43:46;;;;;;;8.60;5.68;;;3.10;69.10;;;;;;6124606;22;93110;-68
2022/03/09 03:46:13;;;;;;;9.27;5.47;;;3.10;69.40;;;;;;6124597;22;92918;-73
2022/03/09 03:48:40;;;;;;;9.02;5.90;;;3.10;69.40;;;;;;6121832;23;94955;-69
2022/03/09 03:51:07;;;;;;;7.10;5.25;;;3.00;69.80;;;;;;6125074;22;92347;-73
2022/03/09 03:53:34;;;;;;;8.18;5.78;;;3.00;69.70;;;;;;6123812;22;104258;-69
2022/03/09 03:56:01;;;;;;;7.57;5.53;;;3.00;69.80;;;;;;6098279;23;100415;-73
2022/03/09 03:58:28;;;;;;;8.10;5.70;;;3.00;69.90;;;;;;6098638;23;92642;-68
2022/03/09 04:00:58;;;;;;;8.13;5.68;;;2.90;70.10;;;;;;6124563;22;92387;-69
2022/03/09 04:03:25;;;;;;;10.05;5.50;;;2.90;70.10;;;;;;6123807;22;93101;-69
2022/03/09 04:05:52;;;;;;;7.82;5.97;;;2.90;70.30;;;;;;6124291;22;92987;-69
2022/03/09 04:08:19;;;;;;;8.65;5.90;;;2.90;70.30;;;;;;6098363;23;92429;-69
2022/03/09 04:10:46;;;;;;;8.02;6.07;;;2.90;70.10;;;;;;6123590;23;92443;-73
2022/03/09 04:13:13;;;;;;;7.38;5.60;;;2.80;70.10;;;;;;6124316;22;95017;-69
2022/03/09 04:15:40;;;;;;;13.32;6.18;;;2.80;70.10;;;;;;6123547;23;111606;-69
2022/03/09 04:18:07;;;;;;;6.82;5.20;;;2.80;70.40;;;;;;6124697;23;92718;-73
2022/03/09 04:20:34;;;;;;;8.40;5.88;;;2.80;70.40;;;;;;6126071;22;92426;-69
2022/03/09 04:23:08;;;;;;;7.85;6.03;;;2.70;70.40;;;;;;6100565;23;93274;-69
2022/03/09 04:25:37;;;;;;;8.15;5.70;;;2.70;70.60;;;;;;6123813;23;95352;-69
2022/03/09 04:28:07;;;;;;;9.73;6.30;;;2.70;70.80;;;;;;6125045;23;92797;-73
2022/03/09 04:30:34;;;;;;;8.25;5.25;;;2.70;70.80;;;;;;6126925;22;91619;-73
2022/03/09 04:33:01;;;;;;;9.27;5.88;;;2.70;71.00;;;;;;6099565;23;96012;-69
2022/03/09 04:35:28;;;;;;;8.00;5.70;;;2.70;71.00;;;;;;6124480;23;95596;-73
2022/03/09 04:37:55;;;;;;;8.55;5.97;;;2.70;71.10;;;;;;6124462;22;94694;-69
2022/03/09 04:40:22;;;;;;;7.50;5.78;;;2.70;71.20;;;;;;6125860;22;92464;-69
2022/03/09 04:42:52;;;;;;;10.10;6.50;;;2.60;71.20;;;;;;6124499;23;94286;-73
2022/03/09 04:45:19;;;;;;;7.97;6.10;;;2.60;71.20;;;;;;6125855;22;93070;-73
2022/03/09 04:47:46;;;;;;;8.27;6.68;;;2.60;71.10;;;;;;6124534;23;92882;-73
2022/03/09 04:50:13;;;;;;;9.02;6.43;;;2.60;71.10;;;;;;6124960;23;92484;-73
2022/03/09 04:52:40;;;;;;;12.18;6.82;;;2.60;71.20;;;;;;6125669;23;93322;-69
2022/03/09 04:55:07;;;;;;;9.13;6.47;;;2.60;71.00;;;;;;6124505;23;93006;-73
2022/03/09 04:57:38;;;;;;;8.27;5.80;;;2.60;71.30;;;;;;6124646;23;92359;-73
2022/03/09 05:00:07;;;;;;;10.25;5.80;;;2.60;71.20;;;;;;6075901;23;92458;-69
2022/03/09 05:02:34;;;;;;;11.73;6.38;;;2.60;71.30;;;;;;6123077;22;109749;-69
2022/03/09 05:05:02;;;;;;;8.50;5.53;;;2.50;71.20;;;;;;6123965;23;95135;-69
2022/03/09 05:07:30;;;;;;;9.93;6.35;;;2.50;71.60;;;;;;6125403;23;92411;-68
2022/03/09 05:09:58;;;;;;;10.40;6.80;;;2.50;71.60;;;;;;6124141;23;92800;-69
2022/03/09 05:12:25;;;;;;;10.65;6.72;;;2.50;71.40;;;;;;6125661;22;93207;-73
2022/03/09 05:14:52;;;;;;;9.98;6.50;;;2.50;71.60;;;;;;6125897;22;92951;-73
2022/03/09 05:17:20;;;;;;;11.70;6.32;;;2.40;71.40;;;;;;6124287;23;92410;-69
2022/03/09 05:19:47;;;;;;;10.05;6.05;;;2.50;71.60;;;;;;6126415;22;91724;-73
2022/03/09 05:22:14;;;;;;;10.70;6.65;;;2.40;71.90;;;;;;6124041;23;95870;-73
2022/03/09 05:24:50;;;;;;;9.25;6.60;;;2.40;72.00;;;;;;6124228;23;95473;-69
2022/03/09 05:27:17;;;;;;;9.23;6.03;;;2.40;72.20;;;;;;6122670;23;94915;-69
2022/03/09 05:29:44;;;;;;;9.68;6.95;;;2.40;72.30;;;;;;6124666;22;107581;-69
2022/03/09 05:32:11;;;;;;;11.15;6.30;;;2.30;72.30;;;;;;6125471;23;93152;-69
2022/03/09 05:34:38;;;;;;;11.55;7.55;;;2.30;72.50;;;;;;6123383;23;95429;-69
2022/03/09 05:37:05;;;;;;;12.63;7.45;;;2.30;72.70;;;;;;6124470;23;92398;-69
2022/03/09 05:39:32;;;;;;;10.05;6.80;;;2.30;72.50;;;;;;6125490;22;92696;-69
2022/03/09 05:41:59;;;;;;;11.57;6.93;;;2.30;73.00;;;;;;6099362;23;93273;-69
2022/03/09 05:44:26;;;;;;;15.20;8.88;;;2.30;73.10;;;;;;6125896;23;93005;-69
2022/03/09 05:46:54;;;;;;;10.00;7.70;;;2.30;73.10;;;;;;6125245;22;92431;-69
2022/03/09 05:49:21;;;;;;;15.98;9.55;;;2.30;72.90;;;;;;6123029;23;107194;-69
2022/03/09 05:51:49;;;;;;;11.20;7.10;;;2.30;73.40;;;;;;6121894;23;95607;-69
2022/03/09 05:54:16;;;;;;;11.25;6.75;;;2.30;73.10;;;;;;6123491;23;95306;-69
2022/03/09 05:56:44;;;;;;;8.52;6.15;;;2.30;72.70;;;;;;6099471;23;92432;-69
2022/03/09 05:59:11;;;;;;;9.07;6.78;;;2.30;73.10;;;;;;6125746;22;92332;-73
2022/03/09 06:01:38;;;;;;;10.82;7.40;;;2.30;72.90;;;;;;6125069;23;93442;-68
2022/03/09 06:04:06;;;;;;;9.45;6.53;;;2.30;73.00;;;;;;6125763;22;92792;-74
2022/03/09 06:06:33;;;;;;;10.60;6.90;;;2.30;73.10;;;;;;6125518;22;92324;-69
2022/03/09 06:09:00;;;;;;;12.02;7.50;;;2.30;72.80;;;;;;6126132;22;91681;-73
2022/03/09 06:11:27;;;;;;;10.48;6.85;;;2.30;73.50;;;;;;6125686;22;93189;-73
2022/03/09 06:13:54;;;;;;;11.93;7.07;;;2.30;72.90;;;;;;6124975;22;92816;-69
2022/03/09 06:16:21;;;;;;;9.50;7.03;;;2.30;72.90;;;;;;6121848;23;94967;-73
2022/03/09 06:18:51;;;;;;;8.55;6.35;;;2.20;73.10;;;;;;6123673;23;92312;-73
2022/03/09 06:21:18;;;;;;;10.02;7.07;;;2.20;73.00;;;;;;6125349;22;92476;-69
2022/03/09 06:23:45;;;;;;;12.57;9.38;;;2.20;73.40;;;;;;6123450;23;92880;-69
2022/03/09 06:26:12;;;;;;;10.30;9.18;;;2.30;72.80;;;;;;6123841;23;92446;-69
2022/03/09 06:28:39;;;;;;;9.82;8.93;;;2.50;72.70;;;;;;6099091;23;92535;-73
2022/03/09 06:31:07;;;;;;;8.57;7.65;;;2.80;71.80;;;;;;6124334;23;93132;-73
2022/03/09 06:33:34;;;;;;;11.02;8.10;;;3.10;71.30;;;;;;6098036;23;111999;-69
2022/03/09 06:36:01;;;;;;;11.70;6.90;;;3.30;70.10;;;;;;6098613;23;92450;-70
2022/03/09 06:38:28;;;;;;;7.80;6.63;;;3.50;69.90;;;;;;6124369;23;92440;-74
2022/03/09 06:40:56;;;;;;;9.02;6.78;;;3.70;69.10;;;;;;6123945;23;95407;-69
2022/03/09 06:43:24;;;;;;;7.30;6.38;;;3.70;69.00;;;;;;6123411;23;95383;-69
2022/03/09 06:45:52;;;;;;;7.55;6.38;;;3.90;68.90;;;;;;6125172;22;92444;-69
2022/03/09 06:48:19;;;;;;;10.18;6.80;;;4.00;68.40;;;;;;6123601;23;92427;-74
2022/03/09 06:50:46;;;;;;;10.00;7.03;;;4.10;67.70;;;;;;6124582;22;112382;-74
2022/03/09 06:53:15;;;;;;;9.75;6.47;;;4.20;67.40;;;;;;6125043;22;92766;-69
2022/03/09 06:55:42;;;;;;;8.00;7.15;;;4.20;67.90;;;;;;6098260;23;92454;-69
2022/03/09 06:58:10;;;;;;;9.82;7.20;;;4.20;67.60;;;;;;6125484;22;91668;-69
2022/03/09 07:00:37;;;;;;;9.70;7.88;;;4.30;67.00;;;;;;6124992;22;93037;-69
2022/03/09 07:03:05;;;;;;;9.90;7.63;;;4.30;66.50;;;;;;6125197;23;92911;-74
2022/03/09 07:05:35;;;;;;;8.23;7.40;;;4.40;66.40;;;;;;6122474;23;94799;-74
2022/03/09 07:08:02;;;;;;;7.88;6.78;;;4.50;66.10;;;;;;6123182;23;92373;-69
2022/03/09 07:10:29;;;;;;;9.20;6.70;;;4.50;65.40;;;;;;6123456;23;92991;-74
2022/03/09 07:12:56;;;;;;;7.63;6.38;;;4.70;65.50;;;;;;6123178;23;93870;-74
2022/03/09 07:15:28;;;;;;;9.68;7.70;;;4.90;65.50;;;;;;6125665;22;92322;-74
2022/03/09 07:17:55;;;;;;;14.43;13.07;;;5.00;64.80;;;;;;6123006;23;99177;-74
2022/03/09 07:20:23;;;;;;;12.05;10.77;;;5.20;64.50;;;;;;6122874;23;93089;-69
2022/03/09 07:22:50;;;;;;;10.43;8.40;;;5.40;63.70;;;;;;6124315;22;92919;-70
2022/03/09 07:25:16;;;;;;;11.18;7.53;;;5.60;63.30;;;;;;6124814;22;92358;-69
2022/03/09 07:27:44;;;;;;;10.57;7.15;;;5.70;62.90;;;;;;6098486;23;92896;-70
2022/03/09 07:30:11;;;;;;;9.82;6.90;;;6.00;62.70;;;;;;6121413;23;98074;-74
2022/03/09 07:32:38;;;;;;;9.20;6.93;;;6.10;62.30;;;;;;6123625;23;95150;-74
2022/03/09 07:35:19;;;;;;;9.82;7.50;;;6.30;61.80;;;;;;6125501;22;92297;-74
2022/03/09 07:37:46;;;;;;;8.32;6.90;;;6.40;61.70;;;;;;6123673;23;92514;-74
2022/03/09 07:40:13;;;;;;;9.93;7.10;;;6.60;61.30;;;;;;6123263;23;93290;-74
2022/03/09 07:42:40;;;;;;;11.23;7.80;;;6.60;61.00;;;;;;6123275;23;95457;-74
2022/03/09 07:45:07;;;;;;;13.43;7.72;;;6.60;61.00;;;;;;6125425;23;92382;-74
2022/03/09 07:47:35;;;;;;;9.85;7.35;;;6.60;61.20;;;;;;6100212;23;91775;-74
2022/03/09 07:50:04;;;;;;;11.45;7.63;;;6.60;61.30;;;;;;6125609;22;100952;-74
2022/03/09 07:52:32;;;;;;;10.00;7.47;;;6.70;60.70;;;;;;6126378;22;92923;-74
2022/03/09 07:54:59;;;;;;;8.45;7.55;;;6.80;60.60;;;;;;6124464;22;94756;-74
2022/03/09 07:57:26;;;;;;;10.98;8.05;;;7.00;59.90;;;;;;6126490;22;92484;-74
2022/03/09 07:59:53;;;;;;;8.98;8.25;;;7.30;59.50;;;;;;6124445;23;95671;-74
2022/03/09 08:02:20;;;;;;;9.57;8.57;;;7.40;58.30;;;;;;6126264;22;92755;-75
2022/03/09 08:04:47;;;;;;;10.38;9.38;;;7.80;58.00;;;;;;6124730;23;92462;-74
2022/03/09 08:07:14;;;;;;;12.20;11.30;;;8.20;57.20;;;;;;6124536;23;92535;-74
2022/03/09 08:09:41;;;;;;;17.40;16.17;;;8.60;56.10;;;;;;6123907;23;95819;-74
2022/03/09 08:12:11;;;;;;;14.60;13.43;;;9.10;55.20;;;;;;6099680;23;95440;-74
2022/03/09 08:14:38;;;;;;;21.75;20.60;;;9.60;53.40;;;;;;6125764;22;92314;-75
2022/03/09 08:17:05;;;;;;;23.75;22.25;;;10.00;51.10;;;;;;6123819;23;101592;-74
2022/03/09 08:19:33;;;;;;;26.98;25.48;;;10.40;50.20;;;;;;6124067;22;95588;-70
2022/03/09 08:22:00;;;;;;;19.92;18.73;;;10.70;49.60;;;;;;6124594;22;94275;-70
2022/03/09 08:24:27;;;;;;;20.08;18.95;;;11.00;49.70;;;;;;6125090;22;93234;-70
2022/03/09 08:26:58;;;;;;;18.60;17.35;;;11.40;48.60;;;;;;6124729;23;92451;-70
2022/03/09 08:29:25;;;;;;;12.77;11.98;;;11.60;45.40;;;;;;6125037;22;93685;-70
2022/03/09 08:31:52;;;;;;;8.73;6.18;;;11.70;46.30;;;;;;6125101;22;92902;-70
2022/03/09 08:34:19;;;;;;;7.38;6.68;;;11.70;45.30;;;;;;6124310;23;92457;-70
2022/03/09 08:36:46;;;;;;;7.97;6.93;;;11.60;46.90;;;;;;6124280;23;96071;-70
2022/03/09 08:39:15;;;;;;;8.52;7.03;;;11.50;46.30;;;;;;6123905;23;92336;-70
2022/03/09 08:41:44;;;;;;;8.30;6.63;;;11.30;46.50;;;;;;6123580;23;101250;-70
2022/03/09 08:44:31;;;;;;;8.13;6.68;;;11.10;47.30;;;;;;6125266;22;94790;-75
2022/03/09 08:46:59;;;;;;;8.60;7.70;;;10.70;49.20;;;;;;6124745;23;92478;-74
2022/03/09 08:49:27;;;;;;;6.85;6.03;;;10.40;49.70;;;;;;6124501;23;95686;-75
2022/03/09 08:51:54;;;;;;;8.07;6.90;;;10.10;50.50;;;;;;6126526;23;92846;-75
2022/03/09 08:54:21;;;;;;;7.40;6.20;;;9.90;50.50;;;;;;6124852;23;92361;-74
2022/03/09 08:56:49;;;;;;;6.22;5.63;;;9.70;50.80;;;;;;6126291;23;92369;-75
2022/03/09 08:59:16;;;;;;;7.40;6.20;;;9.50;51.90;;;;;;6124369;23;93998;-75
2022/03/09 09:01:44;;;;;;;10.02;6.50;;;9.30;51.70;;;;;;6126654;23;93058;-75
2022/03/09 09:04:16;;;;;;;9.23;6.50;;;9.20;52.50;;;;;;6124642;23;92537;-75
2022/03/09 09:06:43;;;;;;;9.40;6.90;;;9.10;53.90;;;;;;6124711;23;93897;-75
2022/03/09 09:09:10;;;;;;;9.70;6.05;;;9.00;53.60;;;;;;6122095;23;98069;-74
2022/03/09 09:11:38;;;;;;;9.70;6.47;;;8.90;54.30;;;;;;6126078;22;97624;-75
2022/03/09 09:14:05;;;;;;;9.18;6.32;;;8.90;54.30;;;;;;6126185;22;92332;-75
2022/03/09 09:16:32;;;;;;;8.18;6.30;;;8.90;53.90;;;;;;6126261;22;92394;-74
2022/03/09 09:18:59;;;;;;;7.55;6.10;;;8.90;53.20;;;;;;6126026;22;93113;-74
2022/03/09 09:21:27;;;;;;;8.95;5.88;;;8.90;54.00;;;;;;6124586;23;93019;-74
2022/03/09 09:23:54;;;;;;;8.35;6.13;;;8.80;54.40;;;;;;6124577;23;92442;-74
2022/03/09 09:26:21;;;;;;;7.35;6.05;;;8.90;54.30;;;;;;6124480;23;91708;-70
2022/03/09 09:29:09;;;;;;;10.77;5.88;;;8.90;53.40;;;;;;6125034;23;93078;-74
2022/03/09 09:31:36;;;;;;;9.32;6.47;;;8.90;55.40;;;;;;6124072;23;95454;-75
2022/03/09 09:34:03;;;;;;;6.65;5.20;;;8.90;55.40;;;;;;6124354;22;94785;-70
2022/03/09 09:36:30;;;;;;;8.90;6.30;;;8.90;54.70;;;;;;6125648;22;92400;-74
2022/03/09 09:38:59;;;;;;;10.88;6.70;;;9.00;54.50;;;;;;6100341;23;93116;-70
2022/03/09 09:41:27;;;;;;;10.02;7.00;;;9.00;54.40;;;;;;6123492;23;95864;-70
2022/03/09 09:43:54;;;;;;;7.35;5.68;;;9.20;54.60;;;;;;6126009;22;92350;-74
2022/03/09 09:46:21;;;;;;;8.48;6.90;;;9.20;53.50;;;;;;6126019;23;92403;-70
2022/03/09 09:48:49;;;;;;;7.25;5.80;;;9.30;53.90;;;;;;6125646;22;93085;-70
2022/03/09 09:51:17;;;;;;;6.15;5.55;;;9.40;53.30;;;;;;6125352;22;92901;-75
2022/03/09 09:53:45;;;;;;;7.72;6.55;;;9.40;53.30;;;;;;6126026;22;92313;-75
2022/03/09 09:56:13;;;;;;;7.05;6.00;;;9.50;53.00;;;;;;6123927;23;92543;-70
2022/03/09 09:58:41;;;;;;;8.10;6.05;;;9.60;52.50;;;;;;6123647;22;95580;-74
2022/03/09 10:01:10;;;;;;;9.43;6.57;;;9.70;52.80;;;;;;6123960;23;94307;-74
2022/03/09 10:03:37;;;;;;;6.97;6.20;;;9.70;51.70;;;;;;6126074;22;92350;-74
2022/03/09 10:06:04;;;;;;;7.40;6.10;;;9.80;52.30;;;;;;6125959;22;92887;-75
2022/03/09 10:08:35;;;;;;;8.50;6.65;;;9.90;52.60;;;;;;6123214;23;96348;-75
2022/03/09 10:11:03;;;;;;;7.32;5.93;;;9.90;51.80;;;;;;6123617;23;95372;-70
2022/03/09 10:13:38;;;;;;;6.85;5.70;;;10.00;49.90;;;;;;6123906;23;92543;-70
2022/03/09 10:16:20;;;;;;;9.48;6.05;;;10.00;50.30;;;;;;6124915;23;91673;-74
2022/03/09 10:18:55;;;;;;;8.15;6.18;;;10.10;50.70;;;;;;6123807;23;96002;-70
2022/03/09 10:21:35;;;;;;;9.13;7.15;;;10.20;51.20;;;;;;6125677;23;92999;-70
2022/03/09 10:24:06;;;;;;;7.10;5.68;;;10.30;49.80;;;;;;6122655;23;95864;-70
2022/03/09 10:26:53;;;;;;;8.48;5.93;;;10.30;48.60;;;;;;6124214;23;92471;-74
2022/03/09 10:29:20;;;;;;;8.80;6.88;;;10.30;47.20;;;;;;6125446;22;93186;-74
2022/03/09 10:31:50;;;;;;;9.98;6.32;;;10.30;49.10;;;;;;6124181;23;92985;-74
2022/03/09 10:34:24;;;;;;;8.20;6.68;;;10.40;47.50;;;;;;6124178;23;92690;-74
2022/03/09 10:37:01;;;;;;;8.82;7.13;;;10.50;48.90;;;;;;6123625;23;92321;-70
2022/03/09 10:39:34;;;;;;;8.48;6.45;;;10.60;47.30;;;;;;6123123;23;95890;-70
2022/03/09 10:42:03;;;;;;;9.55;6.43;;;10.70;47.50;;;;;;6099029;23;94019;-70
2022/03/09 10:44:44;;;;;;;8.68;6.53;;;10.70;49.80;;;;;;6125784;22;92423;-74
2022/03/09 10:47:11;;;;;;;7.47;6.68;;;10.80;48.70;;;;;;6123518;23;92466;-75
2022/03/09 10:49:38;;;;;;;10.23;7.43;;;10.90;47.60;;;;;;6122038;23;97977;-70
2022/03/09 10:52:07;;;;;;;7.95;6.47;;;10.80;46.40;;;;;;6098939;23;100953;-70
2022/03/09 10:54:35;;;;;;;9.20;6.22;;;10.80;46.80;;;;;;6125064;22;92423;-70
2022/03/09 10:57:11;;;;;;;8.75;7.03;;;10.80;48.10;;;;;;6124185;23;92406;-70
2022/03/09 10:59:47;;;;;;;7.85;6.88;;;10.90;48.20;;;;;;6123864;23;96152;-70
2022/03/09 11:02:19;;;;;;;7.05;6.05;;;11.10;46.70;;;;;;6123033;23;96072;-70
2022/03/09 11:05:09;;;;;;;8.40;6.85;;;11.20;47.30;;;;;;6125049;22;92331;-74
2022/03/09 11:07:38;;;;;;;8.15;6.93;;;11.30;48.00;;;;;;6125831;23;91720;-74
2022/03/09 11:10:10;;;;;;;7.53;6.60;;;11.30;46.50;;;;;;6123905;23;92386;-75
2022/03/09 11:12:38;;;;;;;9.13;7.38;;;11.40;45.20;;;;;;6098219;23;95574;-70
2022/03/09 11:15:07;;;;;;;8.48;6.47;;;11.50;42.60;;;;;;6122389;23;95074;-74
2022/03/09 11:17:34;;;;;;;10.45;6.63;;;11.40;41.80;;;;;;6099475;23;92981;-75
2022/03/09 11:20:02;;;;;;;9.23;7.30;;;11.50;44.30;;;;;;6125745;23;93667;-75
2022/03/09 11:22:29;;;;;;;8.40;5.65;;;11.60;43.80;;;;;;6126360;22;92887;-70
2022/03/09 11:24:57;;;;;;;8.23;6.07;;;11.70;43.50;;;;;;6124667;23;92421;-70
2022/03/09 11:27:25;;;;;;;9.27;7.05;;;11.80;43.60;;;;;;6099871;23;92881;-74
2022/03/09 11:29:55;;;;;;;9.98;7.35;;;11.90;41.80;;;;;;6125393;22;106894;-70
2022/03/09 11:32:34;;;;;;;10.18;6.22;;;12.00;42.60;;;;;;6124913;23;95676;-74
2022/03/09 11:35:02;;;;;;;7.85;6.57;;;12.10;42.60;;;;;;6126605;22;92362;-70
2022/03/09 11:37:37;;;;;;;8.75;6.63;;;12.10;44.60;;;;;;6125602;23;92454;-70
2022/03/09 11:40:10;;;;;;;8.05;6.45;;;12.30;43.30;;;;;;6097809;23;98167;-70
2022/03/09 11:42:41;;;;;;;10.30;6.47;;;12.30;42.10;;;;;;6125898;22;95394;-74
2022/03/09 11:45:14;;;;;;;9.38;6.68;;;12.30;42.90;;;;;;6124985;23;92394;-75
2022/03/09 11:48:10;;;;;;;8.90;6.43;;;12.40;42.00;;;;;;6124876;23;92446;-74
2022/03/09 11:50:46;;;;;;;9.68;5.95;;;12.40;41.10;;;;;;6126183;22;92459;-74
2022/03/09 11:53:14;;;;;;;9.47;6.60;;;12.30;40.80;;;;;;6124936;23;93004;-74
2022/03/09 11:55:41;;;;;;;6.65;6.05;;;12.40;42.50;;;;;;6123881;23;96947;-75
2022/03/09 11:58:10;;;;;;;8.63;6.90;;;12.50;42.80;;;;;;6125620;23;92274;-75
2022/03/09 12:01:01;;;;;;;8.18;7.00;;;12.60;41.20;;;;;;6124361;23;95887;-75
2022/03/09 12:03:39;;;;;;;7.85;5.75;;;12.60;37.80;;;;;;6124457;23;95656;-75
2022/03/09 12:06:42;;;;;;;7.40;6.65;;;12.70;40.10;;;;;;6123569;23;94785;-75
2022/03/09 12:09:10;;;;;;;10.55;6.80;;;12.70;38.20;;;;;;6142741;22;92504;-75
2022/03/09 12:12:09;;;;;;;7.75;6.82;;;12.70;40.00;;;;;;6124323;23;93078;-75
2022/03/09 12:15:01;;;;;;;7.25;5.75;;;12.90;41.10;;;;;;6125903;22;92865;-75
2022/03/09 12:17:38;;;;;;;7.65;6.28;;;12.90;38.90;;;;;;6126109;22;92324;-75
2022/03/09 12:20:28;;;;;;;7.68;6.40;;;12.90;40.30;;;;;;6124728;23;92519;-75
2022/03/09 12:22:59;;;;;;;8.50;6.18;;;13.00;38.50;;;;;;6099441;23;95667;-75
2022/03/09 12:25:49;;;;;;;7.72;6.80;;;13.00;39.50;;;;;;6124725;23;95625;-75
2022/03/09 12:28:28;;;;;;;7.65;5.97;;;13.10;38.50;;;;;;6124747;23;92379;-75
2022/03/09 12:31:20;;;;;;;8.57;6.38;;;13.10;38.10;;;;;;6124525;23;92494;-75
2022/03/09 12:33:55;;;;;;;10.70;6.75;;;13.00;38.00;;;;;;6103048;23;95598;-70
2022/03/09 12:36:24;;;;;;;6.85;5.68;;;13.00;37.60;;;;;;6125575;22;95257;-70
2022/03/09 12:39:01;;;;;;;7.57;6.53;;;12.90;37.50;;;;;;6124560;23;92528;-74
2022/03/09 12:41:42;;;;;;;8.35;7.55;;;13.00;38.40;;;;;;6125959;22;92533;-70
2022/03/09 12:44:16;;;;;;;12.50;7.00;;;13.10;38.30;;;;;;6124173;23;93184;-70
2022/03/09 12:46:47;;;;;;;8.23;6.30;;;13.00;37.10;;;;;;6123734;23;94769;-70
2022/03/09 12:49:36;;;;;;;7.50;6.72;;;12.90;36.80;;;;;;6124439;23;92610;-70
2022/03/09 12:52:21;;;;;;;8.68;6.45;;;13.00;38.60;;;;;;6124644;23;91724;-70
2022/03/09 12:54:57;;;;;;;7.78;6.10;;;13.10;40.20;;;;;;6124814;22;93038;-70
2022/03/09 12:57:29;;;;;;;7.25;6.55;;;13.30;38.10;;;;;;6125659;22;92919;-70
2022/03/09 13:00:08;;;;;;;8.27;6.75;;;13.30;39.00;;;;;;6124323;22;94672;-70
2022/03/09 13:02:43;;;;;;;9.10;6.38;;;13.40;37.10;;;;;;6123526;23;92535;-70
2022/03/09 13:05:15;;;;;;;8.68;6.93;;;13.30;35.80;;;;;;6124150;23;93186;-70